sensor_id;sensor_type;location;lat;lon;timestamp;P1;durP1;ratioP1;P2;durP2;ratioP2
41927;SDS011;27616;51.420;6.788;2023-09-18T00:00:47;8.10;;;3.90;;
41927;SDS011;27616;51.420;6.788;2023-09-18T00:03:17;7.18;;;3.60;;
41927;SDS011;27616;51.420;6.788;2023-09-18T00:05:45;9.27;;;4.18;;
41927;SDS011;27616;51.420;6.788;2023-09-18T00:08:13;6.72;;;3.40;;
41927;SDS011;27616;51.420;6.788;2023-09-18T00:10:39;7.65;;;3.97;;
41927;SDS011;27616;51.420;6.788;2023-09-18T00:13:05;7.53;;;4.43;;
41927;SDS011;27616;51.420;6.788;2023-09-18T00:15:30;7.05;;;4.03;;
41927;SDS011;27616;51.420;6.788;2023-09-18T00:17:56;7.97;;;4.10;;
41927;SDS011;27616;51.420;6.788;2023-09-18T00:20:22;8.95;;;4.38;;
41927;SDS011;27616;51.420;6.788;2023-09-18T00:22:52;9.30;;;4.53;;
41927;SDS011;27616;51.420;6.788;2023-09-18T00:25:21;7.63;;;3.92;;
41927;SDS011;27616;51.420;6.788;2023-09-18T00:27:47;10.63;;;4.50;;
41927;SDS011;27616;51.420;6.788;2023-09-18T00:30:13;7.55;;;3.97;;
41927;SDS011;27616;51.420;6.788;2023-09-18T00:32:38;7.90;;;4.10;;
41927;SDS011;27616;51.420;6.788;2023-09-18T00:35:04;9.27;;;3.75;;
41927;SDS011;27616;51.420;6.788;2023-09-18T00:37:30;5.80;;;3.67;;
41927;SDS011;27616;51.420;6.788;2023-09-18T00:39:55;6.50;;;4.00;;
41927;SDS011;27616;51.420;6.788;2023-09-18T00:42:21;7.72;;;4.03;;
41927;SDS011;27616;51.420;6.788;2023-09-18T00:44:48;7.35;;;4.00;;
41927;SDS011;27616;51.420;6.788;2023-09-18T00:47:14;6.95;;;3.88;;
41927;SDS011;27616;51.420;6.788;2023-09-18T00:49:43;6.35;;;4.03;;
41927;SDS011;27616;51.420;6.788;2023-09-18T00:52:11;6.38;;;3.55;;
41927;SDS011;27616;51.420;6.788;2023-09-18T00:54:37;7.82;;;4.03;;
41927;SDS011;27616;51.420;6.788;2023-09-18T00:57:05;6.43;;;4.10;;
41927;SDS011;27616;51.420;6.788;2023-09-18T00:59:31;8.52;;;4.38;;
41927;SDS011;27616;51.420;6.788;2023-09-18T01:01:57;7.70;;;3.92;;
41927;SDS011;27616;51.420;6.788;2023-09-18T01:04:24;7.03;;;4.13;;
41927;SDS011;27616;51.420;6.788;2023-09-18T01:06:51;7.38;;;4.18;;
41927;SDS011;27616;51.420;6.788;2023-09-18T01:09:19;6.47;;;4.07;;
41927;SDS011;27616;51.420;6.788;2023-09-18T01:14:36;8.30;;;3.97;;
41927;SDS011;27616;51.420;6.788;2023-09-18T01:17:08;8.32;;;4.07;;
41927;SDS011;27616;51.420;6.788;2023-09-18T01:19:45;8.68;;;3.70;;
41927;SDS011;27616;51.420;6.788;2023-09-18T01:22:12;10.30;;;4.28;;
41927;SDS011;27616;51.420;6.788;2023-09-18T01:24:40;8.23;;;4.55;;
41927;SDS011;27616;51.420;6.788;2023-09-18T01:27:10;7.05;;;4.05;;
41927;SDS011;27616;51.420;6.788;2023-09-18T01:29:42;8.90;;;4.43;;
41927;SDS011;27616;51.420;6.788;2023-09-18T01:32:08;8.27;;;4.50;;
41927;SDS011;27616;51.420;6.788;2023-09-18T01:34:35;6.95;;;4.10;;
41927;SDS011;27616;51.420;6.788;2023-09-18T01:37:04;9.25;;;4.55;;
41927;SDS011;27616;51.420;6.788;2023-09-18T01:39:31;7.90;;;3.70;;
41927;SDS011;27616;51.420;6.788;2023-09-18T01:41:59;6.95;;;3.92;;
41927;SDS011;27616;51.420;6.788;2023-09-18T01:44:30;7.63;;;4.15;;
41927;SDS011;27616;51.420;6.788;2023-09-18T01:46:58;7.20;;;3.97;;
41927;SDS011;27616;51.420;6.788;2023-09-18T01:49:27;6.65;;;3.85;;
41927;SDS011;27616;51.420;6.788;2023-09-18T01:52:00;8.75;;;4.13;;
41927;SDS011;27616;51.420;6.788;2023-09-18T01:54:26;7.90;;;3.85;;
41927;SDS011;27616;51.420;6.788;2023-09-18T01:56:52;8.70;;;4.40;;
41927;SDS011;27616;51.420;6.788;2023-09-18T01:59:19;10.75;;;4.55;;
41927;SDS011;27616;51.420;6.788;2023-09-18T02:01:45;8.82;;;4.32;;
41927;SDS011;27616;51.420;6.788;2023-09-18T02:04:12;7.53;;;4.43;;
41927;SDS011;27616;51.420;6.788;2023-09-18T02:06:37;9.18;;;3.97;;
41927;SDS011;27616;51.420;6.788;2023-09-18T02:09:03;9.13;;;4.50;;
41927;SDS011;27616;51.420;6.788;2023-09-18T02:11:29;7.90;;;4.05;;
41927;SDS011;27616;51.420;6.788;2023-09-18T02:13:55;8.02;;;4.55;;
41927;SDS011;27616;51.420;6.788;2023-09-18T02:16:21;10.18;;;4.47;;
41927;SDS011;27616;51.420;6.788;2023-09-18T02:18:47;8.63;;;4.25;;
41927;SDS011;27616;51.420;6.788;2023-09-18T02:21:19;6.68;;;3.80;;
41927;SDS011;27616;51.420;6.788;2023-09-18T02:23:48;7.65;;;4.15;;
41927;SDS011;27616;51.420;6.788;2023-09-18T02:26:17;10.15;;;4.43;;
41927;SDS011;27616;51.420;6.788;2023-09-18T02:28:45;9.10;;;3.90;;
41927;SDS011;27616;51.420;6.788;2023-09-18T02:31:12;7.82;;;4.32;;
41927;SDS011;27616;51.420;6.788;2023-09-18T02:33:38;9.40;;;3.92;;
41927;SDS011;27616;51.420;6.788;2023-09-18T02:36:04;9.27;;;4.10;;
41927;SDS011;27616;51.420;6.788;2023-09-18T02:38:30;6.18;;;3.88;;
41927;SDS011;27616;51.420;6.788;2023-09-18T02:40:56;7.72;;;4.15;;
41927;SDS011;27616;51.420;6.788;2023-09-18T02:43:22;8.00;;;3.78;;
41927;SDS011;27616;51.420;6.788;2023-09-18T02:45:48;7.63;;;4.00;;
41927;SDS011;27616;51.420;6.788;2023-09-18T02:48:14;9.40;;;3.97;;
41927;SDS011;27616;51.420;6.788;2023-09-18T02:50:40;9.32;;;3.75;;
41927;SDS011;27616;51.420;6.788;2023-09-18T02:53:06;11.05;;;4.07;;
41927;SDS011;27616;51.420;6.788;2023-09-18T02:55:34;8.27;;;3.63;;
41927;SDS011;27616;51.420;6.788;2023-09-18T02:58:00;8.40;;;3.53;;
41927;SDS011;27616;51.420;6.788;2023-09-18T03:00:25;6.93;;;3.75;;
41927;SDS011;27616;51.420;6.788;2023-09-18T03:02:51;7.93;;;3.40;;
41927;SDS011;27616;51.420;6.788;2023-09-18T03:05:17;7.95;;;3.58;;
41927;SDS011;27616;51.420;6.788;2023-09-18T03:07:42;5.15;;;3.45;;
41927;SDS011;27616;51.420;6.788;2023-09-18T03:10:10;5.30;;;3.10;;
41927;SDS011;27616;51.420;6.788;2023-09-18T03:12:39;11.88;;;3.72;;
41927;SDS011;27616;51.420;6.788;2023-09-18T03:15:05;7.63;;;3.28;;
41927;SDS011;27616;51.420;6.788;2023-09-18T03:17:33;5.80;;;2.90;;
41927;SDS011;27616;51.420;6.788;2023-09-18T03:19:59;8.65;;;3.13;;
41927;SDS011;27616;51.420;6.788;2023-09-18T03:22:25;6.28;;;3.05;;
41927;SDS011;27616;51.420;6.788;2023-09-18T03:24:51;5.00;;;2.47;;
41927;SDS011;27616;51.420;6.788;2023-09-18T03:27:17;5.80;;;2.78;;
41927;SDS011;27616;51.420;6.788;2023-09-18T03:29:43;7.38;;;3.40;;
41927;SDS011;27616;51.420;6.788;2023-09-18T03:32:08;5.53;;;2.90;;
41927;SDS011;27616;51.420;6.788;2023-09-18T03:34:38;5.28;;;2.78;;
41927;SDS011;27616;51.420;6.788;2023-09-18T03:37:03;6.05;;;2.95;;
41927;SDS011;27616;51.420;6.788;2023-09-18T03:39:29;4.55;;;2.72;;
41927;SDS011;27616;51.420;6.788;2023-09-18T03:41:54;7.18;;;3.22;;
41927;SDS011;27616;51.420;6.788;2023-09-18T03:44:20;5.45;;;2.88;;
41927;SDS011;27616;51.420;6.788;2023-09-18T03:46:46;4.65;;;2.80;;
41927;SDS011;27616;51.420;6.788;2023-09-18T03:49:12;6.72;;;2.92;;
41927;SDS011;27616;51.420;6.788;2023-09-18T03:51:38;4.55;;;3.00;;
41927;SDS011;27616;51.420;6.788;2023-09-18T03:54:03;7.05;;;2.97;;
41927;SDS011;27616;51.420;6.788;2023-09-18T03:56:29;5.43;;;2.80;;
41927;SDS011;27616;51.420;6.788;2023-09-18T03:58:54;4.82;;;2.92;;
41927;SDS011;27616;51.420;6.788;2023-09-18T04:01:22;6.55;;;3.17;;
41927;SDS011;27616;51.420;6.788;2023-09-18T04:03:48;5.55;;;2.97;;
41927;SDS011;27616;51.420;6.788;2023-09-18T04:06:13;4.28;;;2.45;;
41927;SDS011;27616;51.420;6.788;2023-09-18T04:08:39;7.82;;;2.70;;
41927;SDS011;27616;51.420;6.788;2023-09-18T04:11:05;6.38;;;2.47;;
41927;SDS011;27616;51.420;6.788;2023-09-18T04:13:34;6.10;;;2.95;;
41927;SDS011;27616;51.420;6.788;2023-09-18T04:16:00;6.95;;;2.78;;
41927;SDS011;27616;51.420;6.788;2023-09-18T04:18:26;6.03;;;2.95;;
41927;SDS011;27616;51.420;6.788;2023-09-18T04:20:52;7.18;;;2.83;;
41927;SDS011;27616;51.420;6.788;2023-09-18T04:23:23;6.72;;;2.92;;
41927;SDS011;27616;51.420;6.788;2023-09-18T04:25:51;9.10;;;3.42;;
41927;SDS011;27616;51.420;6.788;2023-09-18T04:28:18;5.80;;;2.97;;
41927;SDS011;27616;51.420;6.788;2023-09-18T04:30:45;5.65;;;2.92;;
41927;SDS011;27616;51.420;6.788;2023-09-18T04:33:13;8.02;;;2.88;;
41927;SDS011;27616;51.420;6.788;2023-09-18T04:35:39;5.25;;;2.55;;
41927;SDS011;27616;51.420;6.788;2023-09-18T04:38:06;8.98;;;3.25;;
41927;SDS011;27616;51.420;6.788;2023-09-18T04:40:36;9.02;;;3.40;;
41927;SDS011;27616;51.420;6.788;2023-09-18T04:43:02;4.22;;;2.67;;
41927;SDS011;27616;51.420;6.788;2023-09-18T04:45:31;10.25;;;5.50;;
41927;SDS011;27616;51.420;6.788;2023-09-18T04:47:57;7.45;;;3.08;;
41927;SDS011;27616;51.420;6.788;2023-09-18T04:50:23;6.10;;;3.58;;
41927;SDS011;27616;51.420;6.788;2023-09-18T04:52:52;6.03;;;3.30;;
41927;SDS011;27616;51.420;6.788;2023-09-18T04:55:19;9.65;;;5.72;;
41927;SDS011;27616;51.420;6.788;2023-09-18T04:57:45;9.00;;;4.32;;
41927;SDS011;27616;51.420;6.788;2023-09-18T05:00:11;5.70;;;2.70;;
41927;SDS011;27616;51.420;6.788;2023-09-18T05:02:39;7.40;;;3.83;;
41927;SDS011;27616;51.420;6.788;2023-09-18T05:05:05;6.03;;;2.95;;
41927;SDS011;27616;51.420;6.788;2023-09-18T05:07:31;6.72;;;3.67;;
41927;SDS011;27616;51.420;6.788;2023-09-18T05:09:57;7.40;;;2.80;;
41927;SDS011;27616;51.420;6.788;2023-09-18T05:12:23;9.02;;;4.35;;
41927;SDS011;27616;51.420;6.788;2023-09-18T05:14:49;10.30;;;4.03;;
41927;SDS011;27616;51.420;6.788;2023-09-18T05:17:16;6.65;;;2.92;;
41927;SDS011;27616;51.420;6.788;2023-09-18T05:19:42;6.88;;;3.25;;
41927;SDS011;27616;51.420;6.788;2023-09-18T05:22:09;6.93;;;3.10;;
41927;SDS011;27616;51.420;6.788;2023-09-18T05:24:38;7.75;;;3.15;;
41927;SDS011;27616;51.420;6.788;2023-09-18T05:27:04;12.23;;;6.70;;
41927;SDS011;27616;51.420;6.788;2023-09-18T05:29:31;9.40;;;3.50;;
41927;SDS011;27616;51.420;6.788;2023-09-18T05:31:57;7.18;;;3.42;;
41927;SDS011;27616;51.420;6.788;2023-09-18T05:34:23;5.47;;;2.85;;
41927;SDS011;27616;51.420;6.788;2023-09-18T05:36:48;5.07;;;2.70;;
41927;SDS011;27616;51.420;6.788;2023-09-18T05:39:15;7.30;;;3.00;;
41927;SDS011;27616;51.420;6.788;2023-09-18T05:41:40;13.73;;;7.15;;
41927;SDS011;27616;51.420;6.788;2023-09-18T05:44:06;5.82;;;3.20;;
41927;SDS011;27616;51.420;6.788;2023-09-18T05:46:35;9.27;;;4.20;;
41927;SDS011;27616;51.420;6.788;2023-09-18T05:49:01;8.80;;;4.70;;
41927;SDS011;27616;51.420;6.788;2023-09-18T05:51:27;12.63;;;6.63;;
41927;SDS011;27616;51.420;6.788;2023-09-18T05:53:53;10.30;;;5.38;;
41927;SDS011;27616;51.420;6.788;2023-09-18T05:56:18;9.75;;;4.35;;
41927;SDS011;27616;51.420;6.788;2023-09-18T05:58:44;12.23;;;6.05;;
41927;SDS011;27616;51.420;6.788;2023-09-18T06:01:10;10.95;;;5.50;;
41927;SDS011;27616;51.420;6.788;2023-09-18T06:03:35;18.58;;;7.43;;
41927;SDS011;27616;51.420;6.788;2023-09-18T06:06:02;6.43;;;3.33;;
41927;SDS011;27616;51.420;6.788;2023-09-18T06:08:28;4.72;;;2.70;;
41927;SDS011;27616;51.420;6.788;2023-09-18T06:10:55;6.72;;;2.90;;
41927;SDS011;27616;51.420;6.788;2023-09-18T06:13:23;7.72;;;3.33;;
41927;SDS011;27616;51.420;6.788;2023-09-18T06:15:50;6.03;;;3.03;;
41927;SDS011;27616;51.420;6.788;2023-09-18T06:18:17;7.83;;;4.10;;
41927;SDS011;27616;51.420;6.788;2023-09-18T06:20:45;12.43;;;5.80;;
41927;SDS011;27616;51.420;6.788;2023-09-18T06:23:12;5.68;;;2.80;;
41927;SDS011;27616;51.420;6.788;2023-09-18T06:25:38;7.00;;;3.00;;
41927;SDS011;27616;51.420;6.788;2023-09-18T06:28:04;4.65;;;2.42;;
41927;SDS011;27616;51.420;6.788;2023-09-18T06:30:30;6.97;;;3.22;;
41927;SDS011;27616;51.420;6.788;2023-09-18T06:32:56;4.82;;;2.17;;
41927;SDS011;27616;51.420;6.788;2023-09-18T06:35:22;4.78;;;2.35;;
41927;SDS011;27616;51.420;6.788;2023-09-18T06:37:47;13.05;;;6.57;;
41927;SDS011;27616;51.420;6.788;2023-09-18T06:40:13;7.88;;;1.92;;
41927;SDS011;27616;51.420;6.788;2023-09-18T06:42:39;9.02;;;2.60;;
41927;SDS011;27616;51.420;6.788;2023-09-18T06:45:05;4.85;;;2.33;;
41927;SDS011;27616;51.420;6.788;2023-09-18T06:47:32;12.13;;;6.82;;
41927;SDS011;27616;51.420;6.788;2023-09-18T06:49:58;16.45;;;7.57;;
41927;SDS011;27616;51.420;6.788;2023-09-18T06:52:25;6.40;;;2.63;;
41927;SDS011;27616;51.420;6.788;2023-09-18T06:54:53;6.18;;;3.53;;
41927;SDS011;27616;51.420;6.788;2023-09-18T06:57:19;5.30;;;2.33;;
41927;SDS011;27616;51.420;6.788;2023-09-18T06:59:46;3.50;;;1.80;;
41927;SDS011;27616;51.420;6.788;2023-09-18T07:02:12;4.97;;;1.88;;
41927;SDS011;27616;51.420;6.788;2023-09-18T07:04:41;9.80;;;3.80;;
41927;SDS011;27616;51.420;6.788;2023-09-18T07:07:11;9.15;;;3.75;;
41927;SDS011;27616;51.420;6.788;2023-09-18T07:09:38;4.20;;;1.83;;
41927;SDS011;27616;51.420;6.788;2023-09-18T07:12:03;4.78;;;2.50;;
41927;SDS011;27616;51.420;6.788;2023-09-18T07:14:29;4.20;;;1.85;;
41927;SDS011;27616;51.420;6.788;2023-09-18T07:16:56;5.00;;;2.85;;
41927;SDS011;27616;51.420;6.788;2023-09-18T07:19:21;6.63;;;1.83;;
41927;SDS011;27616;51.420;6.788;2023-09-18T07:21:47;6.97;;;3.05;;
41927;SDS011;27616;51.420;6.788;2023-09-18T07:24:13;6.90;;;2.90;;
41927;SDS011;27616;51.420;6.788;2023-09-18T07:26:43;4.15;;;1.55;;
41927;SDS011;27616;51.420;6.788;2023-09-18T07:29:12;2.88;;;1.33;;
41927;SDS011;27616;51.420;6.788;2023-09-18T07:31:40;3.17;;;1.37;;
41927;SDS011;27616;51.420;6.788;2023-09-18T07:34:09;5.63;;;1.67;;
41927;SDS011;27616;51.420;6.788;2023-09-18T07:36:35;5.05;;;1.42;;
41927;SDS011;27616;51.420;6.788;2023-09-18T07:39:01;4.70;;;1.15;;
41927;SDS011;27616;51.420;6.788;2023-09-18T07:41:27;3.50;;;1.60;;
41927;SDS011;27616;51.420;6.788;2023-09-18T07:43:53;5.18;;;1.52;;
41927;SDS011;27616;51.420;6.788;2023-09-18T07:46:18;3.85;;;1.27;;
41927;SDS011;27616;51.420;6.788;2023-09-18T07:48:44;4.53;;;1.50;;
41927;SDS011;27616;51.420;6.788;2023-09-18T07:51:12;4.70;;;1.20;;
41927;SDS011;27616;51.420;6.788;2023-09-18T07:56:04;3.72;;;1.40;;
41927;SDS011;27616;51.420;6.788;2023-09-18T07:58:30;2.47;;;1.10;;
41927;SDS011;27616;51.420;6.788;2023-09-18T08:00:58;2.83;;;0.97;;
41927;SDS011;27616;51.420;6.788;2023-09-18T08:03:25;4.50;;;1.05;;
41927;SDS011;27616;51.420;6.788;2023-09-18T08:05:52;4.85;;;1.08;;
41927;SDS011;27616;51.420;6.788;2023-09-18T08:08:19;1.90;;;0.82;;
41927;SDS011;27616;51.420;6.788;2023-09-18T08:10:45;1.95;;;1.00;;
41927;SDS011;27616;51.420;6.788;2023-09-18T08:13:12;1.58;;;0.85;;
41927;SDS011;27616;51.420;6.788;2023-09-18T08:15:38;5.68;;;1.10;;
41927;SDS011;27616;51.420;6.788;2023-09-18T08:18:04;3.78;;;1.10;;
41927;SDS011;27616;51.420;6.788;2023-09-18T08:20:30;1.67;;;1.02;;
41927;SDS011;27616;51.420;6.788;2023-09-18T08:22:55;2.75;;;1.00;;
41927;SDS011;27616;51.420;6.788;2023-09-18T08:25:21;3.60;;;0.88;;
41927;SDS011;27616;51.420;6.788;2023-09-18T08:27:47;4.43;;;1.25;;
41927;SDS011;27616;51.420;6.788;2023-09-18T08:30:14;2.72;;;1.30;;
41927;SDS011;27616;51.420;6.788;2023-09-18T08:32:42;6.47;;;1.02;;
41927;SDS011;27616;51.420;6.788;2023-09-18T08:35:08;3.85;;;1.10;;
41927;SDS011;27616;51.420;6.788;2023-09-18T08:37:34;4.13;;;1.23;;
41927;SDS011;27616;51.420;6.788;2023-09-18T08:40:00;1.92;;;0.85;;
41927;SDS011;27616;51.420;6.788;2023-09-18T08:42:26;3.72;;;1.10;;
41927;SDS011;27616;51.420;6.788;2023-09-18T08:44:55;1.48;;;0.77;;
41927;SDS011;27616;51.420;6.788;2023-09-18T08:47:24;2.72;;;0.60;;
41927;SDS011;27616;51.420;6.788;2023-09-18T08:49:51;3.00;;;1.10;;
41927;SDS011;27616;51.420;6.788;2023-09-18T08:52:18;2.10;;;0.82;;
41927;SDS011;27616;51.420;6.788;2023-09-18T08:54:43;2.55;;;0.90;;
41927;SDS011;27616;51.420;6.788;2023-09-18T08:57:10;3.08;;;1.15;;
41927;SDS011;27616;51.420;6.788;2023-09-18T08:59:36;1.23;;;0.75;;
41927;SDS011;27616;51.420;6.788;2023-09-18T09:02:04;2.75;;;0.90;;
41927;SDS011;27616;51.420;6.788;2023-09-18T09:04:29;3.80;;;0.90;;
41927;SDS011;27616;51.420;6.788;2023-09-18T09:06:55;1.08;;;0.70;;
41927;SDS011;27616;51.420;6.788;2023-09-18T09:09:24;1.10;;;0.82;;
41927;SDS011;27616;51.420;6.788;2023-09-18T09:11:51;2.08;;;0.70;;
41927;SDS011;27616;51.420;6.788;2023-09-18T09:14:17;2.35;;;0.60;;
41927;SDS011;27616;51.420;6.788;2023-09-18T09:16:47;1.05;;;0.80;;
41927;SDS011;27616;51.420;6.788;2023-09-18T09:19:15;2.50;;;0.82;;
41927;SDS011;27616;51.420;6.788;2023-09-18T09:21:42;3.50;;;1.20;;
41927;SDS011;27616;51.420;6.788;2023-09-18T09:24:09;2.20;;;0.88;;
41927;SDS011;27616;51.420;6.788;2023-09-18T09:26:41;1.48;;;0.80;;
41927;SDS011;27616;51.420;6.788;2023-09-18T09:29:17;1.38;;;0.75;;
41927;SDS011;27616;51.420;6.788;2023-09-18T09:31:45;2.15;;;0.95;;
41927;SDS011;27616;51.420;6.788;2023-09-18T09:34:12;2.53;;;1.20;;
41927;SDS011;27616;51.420;6.788;2023-09-18T09:36:55;1.95;;;0.90;;
41927;SDS011;27616;51.420;6.788;2023-09-18T09:39:21;1.85;;;1.10;;
41927;SDS011;27616;51.420;6.788;2023-09-18T09:41:50;2.25;;;0.70;;
41927;SDS011;27616;51.420;6.788;2023-09-18T09:44:17;3.10;;;1.13;;
41927;SDS011;27616;51.420;6.788;2023-09-18T09:46:49;4.75;;;1.20;;
41927;SDS011;27616;51.420;6.788;2023-09-18T09:49:16;1.77;;;0.75;;
41927;SDS011;27616;51.420;6.788;2023-09-18T09:51:45;1.90;;;0.90;;
41927;SDS011;27616;51.420;6.788;2023-09-18T09:54:11;2.72;;;0.90;;
41927;SDS011;27616;51.420;6.788;2023-09-18T09:59:07;1.35;;;0.70;;
41927;SDS011;27616;51.420;6.788;2023-09-18T10:01:33;1.88;;;0.80;;
41927;SDS011;27616;51.420;6.788;2023-09-18T10:04:03;1.60;;;0.98;;
41927;SDS011;27616;51.420;6.788;2023-09-18T10:06:33;3.83;;;1.00;;
41927;SDS011;27616;51.420;6.788;2023-09-18T10:09:00;3.38;;;1.38;;
41927;SDS011;27616;51.420;6.788;2023-09-18T10:11:31;2.75;;;1.00;;
41927;SDS011;27616;51.420;6.788;2023-09-18T10:14:26;3.83;;;0.82;;
41927;SDS011;27616;51.420;6.788;2023-09-18T10:16:59;2.60;;;0.70;;
41927;SDS011;27616;51.420;6.788;2023-09-18T10:22:44;1.33;;;0.85;;
41927;SDS011;27616;51.420;6.788;2023-09-18T10:25:15;2.47;;;0.85;;
41927;SDS011;27616;51.420;6.788;2023-09-18T10:27:48;1.85;;;1.00;;
41927;SDS011;27616;51.420;6.788;2023-09-18T10:30:19;4.07;;;0.88;;
41927;SDS011;27616;51.420;6.788;2023-09-18T10:32:48;2.78;;;0.93;;
41927;SDS011;27616;51.420;6.788;2023-09-18T10:35:14;3.50;;;0.80;;
41927;SDS011;27616;51.420;6.788;2023-09-18T10:37:43;3.13;;;1.05;;
41927;SDS011;27616;51.420;6.788;2023-09-18T10:40:11;2.20;;;0.90;;
41927;SDS011;27616;51.420;6.788;2023-09-18T10:42:38;1.80;;;0.88;;
41927;SDS011;27616;51.420;6.788;2023-09-18T10:45:04;1.65;;;1.02;;
41927;SDS011;27616;51.420;6.788;2023-09-18T10:47:32;1.98;;;0.93;;
41927;SDS011;27616;51.420;6.788;2023-09-18T10:49:59;4.40;;;1.00;;
41927;SDS011;27616;51.420;6.788;2023-09-18T10:52:26;1.90;;;0.82;;
41927;SDS011;27616;51.420;6.788;2023-09-18T10:54:52;3.50;;;1.00;;
41927;SDS011;27616;51.420;6.788;2023-09-18T10:57:18;3.85;;;1.50;;
41927;SDS011;27616;51.420;6.788;2023-09-18T10:59:46;1.42;;;1.00;;
41927;SDS011;27616;51.420;6.788;2023-09-18T11:02:15;2.22;;;1.38;;
41927;SDS011;27616;51.420;6.788;2023-09-18T11:04:42;4.78;;;1.10;;
41927;SDS011;27616;51.420;6.788;2023-09-18T11:07:19;2.50;;;0.95;;
41927;SDS011;27616;51.420;6.788;2023-09-18T11:09:45;3.45;;;1.10;;
41927;SDS011;27616;51.420;6.788;2023-09-18T11:12:11;3.65;;;1.10;;
41927;SDS011;27616;51.420;6.788;2023-09-18T11:14:48;2.45;;;1.27;;
41927;SDS011;27616;51.420;6.788;2023-09-18T11:17:36;3.88;;;1.02;;
41927;SDS011;27616;51.420;6.788;2023-09-18T11:20:04;1.45;;;0.90;;
41927;SDS011;27616;51.420;6.788;2023-09-18T11:22:34;2.67;;;1.05;;
41927;SDS011;27616;51.420;6.788;2023-09-18T11:27:59;2.38;;;1.30;;
41927;SDS011;27616;51.420;6.788;2023-09-18T11:30:27;5.70;;;1.50;;
41927;SDS011;27616;51.420;6.788;2023-09-18T11:32:56;1.70;;;1.10;;
41927;SDS011;27616;51.420;6.788;2023-09-18T11:35:21;1.92;;;1.08;;
41927;SDS011;27616;51.420;6.788;2023-09-18T11:37:48;3.75;;;1.20;;
41927;SDS011;27616;51.420;6.788;2023-09-18T11:40:31;2.67;;;1.40;;
41927;SDS011;27616;51.420;6.788;2023-09-18T11:45:51;4.15;;;1.20;;
41927;SDS011;27616;51.420;6.788;2023-09-18T11:48:19;7.88;;;1.70;;
41927;SDS011;27616;51.420;6.788;2023-09-18T11:50:45;2.80;;;1.10;;
41927;SDS011;27616;51.420;6.788;2023-09-18T11:55:39;3.63;;;1.27;;
41927;SDS011;27616;51.420;6.788;2023-09-18T11:58:05;2.40;;;0.90;;
41927;SDS011;27616;51.420;6.788;2023-09-18T12:00:34;2.85;;;1.27;;
41927;SDS011;27616;51.420;6.788;2023-09-18T12:03:14;3.13;;;1.20;;
41927;SDS011;27616;51.420;6.788;2023-09-18T12:05:57;3.55;;;1.40;;
41927;SDS011;27616;51.420;6.788;2023-09-18T12:08:25;1.90;;;1.23;;
41927;SDS011;27616;51.420;6.788;2023-09-18T12:10:54;3.60;;;1.52;;
41927;SDS011;27616;51.420;6.788;2023-09-18T12:13:20;3.85;;;1.70;;
41927;SDS011;27616;51.420;6.788;2023-09-18T12:15:47;5.05;;;2.10;;
41927;SDS011;27616;51.420;6.788;2023-09-18T12:18:14;7.00;;;1.83;;
41927;SDS011;27616;51.420;6.788;2023-09-18T12:20:47;2.67;;;1.33;;
41927;SDS011;27616;51.420;6.788;2023-09-18T12:23:14;2.92;;;1.40;;
41927;SDS011;27616;51.420;6.788;2023-09-18T12:25:40;2.72;;;1.27;;
41927;SDS011;27616;51.420;6.788;2023-09-18T12:28:09;2.40;;;1.02;;
41927;SDS011;27616;51.420;6.788;2023-09-18T12:30:36;4.25;;;1.50;;
41927;SDS011;27616;51.420;6.788;2023-09-18T12:33:02;2.88;;;1.23;;
41927;SDS011;27616;51.420;6.788;2023-09-18T12:35:30;4.03;;;1.30;;
41927;SDS011;27616;51.420;6.788;2023-09-18T12:37:59;10.15;;;1.35;;
41927;SDS011;27616;51.420;6.788;2023-09-18T12:40:26;3.33;;;1.50;;
41927;SDS011;27616;51.420;6.788;2023-09-18T12:42:54;3.03;;;1.17;;
41927;SDS011;27616;51.420;6.788;2023-09-18T12:45:22;4.20;;;1.27;;
41927;SDS011;27616;51.420;6.788;2023-09-18T12:47:49;3.67;;;1.20;;
41927;SDS011;27616;51.420;6.788;2023-09-18T12:50:16;2.15;;;1.27;;
41927;SDS011;27616;51.420;6.788;2023-09-18T12:52:42;4.25;;;1.10;;
41927;SDS011;27616;51.420;6.788;2023-09-18T12:55:08;4.00;;;1.23;;
41927;SDS011;27616;51.420;6.788;2023-09-18T12:57:45;1.50;;;0.83;;
41927;SDS011;27616;51.420;6.788;2023-09-18T13:00:11;2.50;;;1.00;;
41927;SDS011;27616;51.420;6.788;2023-09-18T13:02:38;2.33;;;1.08;;
41927;SDS011;27616;51.420;6.788;2023-09-18T13:05:05;3.92;;;1.38;;
41927;SDS011;27616;51.420;6.788;2023-09-18T13:07:31;1.50;;;0.93;;
41927;SDS011;27616;51.420;6.788;2023-09-18T13:10:08;2.03;;;0.90;;
41927;SDS011;27616;51.420;6.788;2023-09-18T13:12:51;2.00;;;1.20;;
41927;SDS011;27616;51.420;6.788;2023-09-18T13:15:28;2.75;;;1.27;;
41927;SDS011;27616;51.420;6.788;2023-09-18T13:17:55;3.05;;;1.17;;
41927;SDS011;27616;51.420;6.788;2023-09-18T13:20:34;3.08;;;1.27;;
41927;SDS011;27616;51.420;6.788;2023-09-18T13:23:00;3.70;;;1.35;;
41927;SDS011;27616;51.420;6.788;2023-09-18T13:25:35;5.25;;;1.10;;
41927;SDS011;27616;51.420;6.788;2023-09-18T13:28:04;7.60;;;1.30;;
41927;SDS011;27616;51.420;6.788;2023-09-18T13:30:31;2.03;;;0.90;;
41927;SDS011;27616;51.420;6.788;2023-09-18T13:33:17;2.75;;;1.00;;
41927;SDS011;27616;51.420;6.788;2023-09-18T13:35:44;1.40;;;0.80;;
41927;SDS011;27616;51.420;6.788;2023-09-18T13:38:10;1.63;;;0.93;;
41927;SDS011;27616;51.420;6.788;2023-09-18T13:40:37;1.75;;;1.00;;
41927;SDS011;27616;51.420;6.788;2023-09-18T13:43:04;3.22;;;0.85;;
41927;SDS011;27616;51.420;6.788;2023-09-18T13:45:34;2.53;;;0.98;;
41927;SDS011;27616;51.420;6.788;2023-09-18T13:48:01;3.00;;;1.10;;
41927;SDS011;27616;51.420;6.788;2023-09-18T13:50:27;1.70;;;1.00;;
41927;SDS011;27616;51.420;6.788;2023-09-18T13:52:53;3.45;;;1.50;;
41927;SDS011;27616;51.420;6.788;2023-09-18T13:55:19;4.35;;;1.20;;
41927;SDS011;27616;51.420;6.788;2023-09-18T13:57:44;3.80;;;1.17;;
41927;SDS011;27616;51.420;6.788;2023-09-18T14:00:11;5.05;;;0.90;;
41927;SDS011;27616;51.420;6.788;2023-09-18T14:02:39;4.05;;;1.30;;
41927;SDS011;27616;51.420;6.788;2023-09-18T14:05:06;2.05;;;0.80;;
41927;SDS011;27616;51.420;6.788;2023-09-18T14:07:32;2.13;;;1.00;;
41927;SDS011;27616;51.420;6.788;2023-09-18T14:09:57;1.60;;;0.90;;
41927;SDS011;27616;51.420;6.788;2023-09-18T14:12:23;1.73;;;1.00;;
41927;SDS011;27616;51.420;6.788;2023-09-18T14:14:49;6.25;;;1.30;;
41927;SDS011;27616;51.420;6.788;2023-09-18T14:17:15;2.33;;;1.00;;
41927;SDS011;27616;51.420;6.788;2023-09-18T14:19:43;1.48;;;0.90;;
41927;SDS011;27616;51.420;6.788;2023-09-18T14:22:09;3.90;;;1.20;;
41927;SDS011;27616;51.420;6.788;2023-09-18T14:24:34;2.38;;;1.30;;
41927;SDS011;27616;51.420;6.788;2023-09-18T14:27:01;1.90;;;1.00;;
41927;SDS011;27616;51.420;6.788;2023-09-18T14:29:27;1.73;;;1.00;;
41927;SDS011;27616;51.420;6.788;2023-09-18T14:31:55;2.67;;;1.00;;
41927;SDS011;27616;51.420;6.788;2023-09-18T14:34:21;2.22;;;0.85;;
41927;SDS011;27616;51.420;6.788;2023-09-18T14:36:47;2.28;;;1.20;;
41927;SDS011;27616;51.420;6.788;2023-09-18T14:39:12;4.43;;;1.23;;
41927;SDS011;27616;51.420;6.788;2023-09-18T14:41:38;3.72;;;1.48;;
41927;SDS011;27616;51.420;6.788;2023-09-18T14:44:07;3.42;;;1.00;;
41927;SDS011;27616;51.420;6.788;2023-09-18T14:46:35;2.13;;;0.77;;
41927;SDS011;27616;51.420;6.788;2023-09-18T14:49:02;2.17;;;1.00;;
41927;SDS011;27616;51.420;6.788;2023-09-18T14:51:29;2.83;;;1.00;;
41927;SDS011;27616;51.420;6.788;2023-09-18T14:53:55;3.13;;;1.42;;
41927;SDS011;27616;51.420;6.788;2023-09-18T14:56:21;8.75;;;4.70;;
41927;SDS011;27616;51.420;6.788;2023-09-18T14:58:46;10.50;;;5.82;;
41927;SDS011;27616;51.420;6.788;2023-09-18T15:01:12;2.72;;;1.52;;
41927;SDS011;27616;51.420;6.788;2023-09-18T15:03:39;3.65;;;1.52;;
41927;SDS011;27616;51.420;6.788;2023-09-18T15:06:06;1.88;;;1.17;;
41927;SDS011;27616;51.420;6.788;2023-09-18T15:08:36;1.63;;;1.00;;